Terminal Aerodrome Forecast
Issued by NWS

Home | Current Version | Previous Version | Text Only | Print | Product List | Glossary On
Versions: 1 2 3 4 5 6 7 8 9 10 11 12 13 14 15 16 17 18 19 20 21 22 23 24
000
FTUS43 KLOT 232057 AAA
TAFORD
TAF AMD
KORD 232057Z 2321/2424 19014G20KT P6SM FEW050 SCT250
     FM240000 17009KT P6SM BKN040
     FM240800 18010KT P6SM VCSH BKN040
      TEMPO 2411/2415 3SM TSRA SCT010 OVC018CB
     FM241500 20012G20KT P6SM VCTS BKN025CB OVC050
     FM241800 20014G25KT P6SM VCSH BKN025=

USA.gov is the U.S. government's official web portal to all federal, state and local government web resources and services.